Time;durP1;ratioP1;P1;durP2;ratioP2;P2;SDS_P1;SDS_P2;PMS_P1;PMS_P2;Temp;Humidity;BMP_temperature;BMP_pressure;BME280_temperature;BME280_humidity;BME280_pressure;Samples;Min_cycle;Max_cycle;Signal;HPM_P1;HPM_P2
2022/09/09 00:01:08;;;;;;;10.45;5.75;;;14.00;99.90;;;;;;5157122;27;20043;-77
2022/09/09 00:03:53;;;;;;;7.60;5.88;;;14.10;99.90;;;;;;5156999;27;20050;-78
2022/09/09 00:06:44;;;;;;;17.33;6.93;;;14.10;99.90;;;;;;5156978;27;20039;-76
2022/09/09 00:09:17;;;;;;;12.27;5.82;;;14.00;99.90;;;;;;5157507;27;20091;-77
2022/09/09 00:11:48;;;;;;;9.05;4.95;;;14.00;99.90;;;;;;5156951;27;20082;-78
2022/09/09 00:14:34;;;;;;;10.05;5.45;;;13.90;99.90;;;;;;5156861;27;20513;-77
2022/09/09 00:17:27;;;;;;;7.03;4.75;;;13.90;99.90;;;;;;5157218;27;20095;-77
2022/09/09 00:20:12;;;;;;;9.10;4.85;;;13.90;99.90;;;;;;5138385;27;20050;-77
2022/09/09 00:22:43;;;;;;;21.35;5.55;;;13.90;99.90;;;;;;5156659;27;20039;-76
2022/09/09 00:25:16;;;;;;;6.45;4.75;;;13.90;99.90;;;;;;5156663;27;20087;-77
2022/09/09 00:27:47;;;;;;;7.07;4.95;;;13.80;99.90;;;;;;5156549;27;20083;-77
2022/09/09 00:30:23;;;;;;;8.90;5.05;;;13.90;99.90;;;;;;5138037;27;20034;-77
2022/09/09 00:32:54;;;;;;;9.55;5.20;;;13.90;99.90;;;;;;5156701;27;20045;-78
2022/09/09 00:35:36;;;;;;;11.10;5.05;;;13.80;99.90;;;;;;5156406;27;20390;-77
2022/09/09 00:38:17;;;;;;;6.88;5.28;;;13.80;99.90;;;;;;5156399;27;20034;-77
2022/09/09 00:40:56;;;;;;;6.07;4.80;;;13.80;99.90;;;;;;5156480;27;20086;-78
2022/09/09 00:43:30;;;;;;;6.95;4.82;;;13.80;99.90;;;;;;5137404;27;20055;-77
2022/09/09 00:46:18;;;;;;;6.85;5.22;;;13.80;99.90;;;;;;5155838;27;20470;-77
2022/09/09 00:49:14;;;;;;;6.25;5.07;;;13.80;99.90;;;;;;5156115;27;20122;-77
2022/09/09 00:51:52;;;;;;;7.00;4.78;;;13.80;99.90;;;;;;5156293;27;20042;-77
2022/09/09 00:54:45;;;;;;;9.25;5.78;;;13.80;99.90;;;;;;5156064;27;20067;-78
2022/09/09 00:57:28;;;;;;;9.95;5.03;;;13.80;99.90;;;;;;5156328;27;20038;-77
2022/09/09 01:00:26;;;;;;;9.15;5.70;;;13.80;99.90;;;;;;5155960;27;20038;-78
2022/09/09 01:03:11;;;;;;;7.78;5.50;;;13.80;99.90;;;;;;5156351;27;20046;-78
2022/09/09 01:05:46;;;;;;;9.43;6.03;;;13.90;99.90;;;;;;5156023;27;20405;-78
2022/09/09 01:08:31;;;;;;;12.02;5.85;;;13.90;99.90;;;;;;5155925;27;20046;-78
2022/09/09 01:10:59;;;;;;;9.07;5.50;;;13.90;99.90;;;;;;5155847;27;20057;-76
2022/09/09 01:13:30;;;;;;;9.48;5.70;;;14.00;99.90;;;;;;5155740;27;20085;-77
2022/09/09 01:16:02;;;;;;;7.60;5.15;;;14.00;99.90;;;;;;5155759;27;20083;-78
2022/09/09 01:18:34;;;;;;;7.30;5.22;;;14.00;99.90;;;;;;5155760;27;20085;-78
2022/09/09 01:21:38;;;;;;;10.10;5.28;;;14.00;99.90;;;;;;5155744;27;20142;-77
2022/09/09 01:24:21;;;;;;;8.85;5.45;;;14.10;99.90;;;;;;5155258;27;20490;-77
2022/09/09 01:26:50;;;;;;;7.50;5.40;;;14.20;99.90;;;;;;5155462;27;20121;-78
2022/09/09 01:29:18;;;;;;;7.55;5.05;;;14.20;99.90;;;;;;5155523;27;20063;-77
2022/09/09 01:31:52;;;;;;;10.02;5.28;;;14.40;99.90;;;;;;5155422;27;20435;-77
2022/09/09 01:34:18;;;;;;;6.20;5.13;;;14.30;99.90;;;;;;5155463;27;20052;-79
2022/09/09 01:36:52;;;;;;;8.27;5.87;;;14.30;99.90;;;;;;5155383;27;20034;-78
2022/09/09 01:39:19;;;;;;;10.57;5.85;;;14.30;99.90;;;;;;5155367;27;20627;-77
2022/09/09 01:41:44;;;;;;;11.45;5.43;;;14.30;99.90;;;;;;5155049;27;20058;-78
2022/09/09 01:44:10;;;;;;;7.63;5.22;;;14.40;99.90;;;;;;5155351;27;20047;-76
2022/09/09 01:46:36;;;;;;;6.78;5.25;;;14.40;99.90;;;;;;5155758;27;20095;-78
2022/09/09 01:49:04;;;;;;;8.17;6.10;;;14.40;99.90;;;;;;5155286;27;20043;-77
2022/09/09 01:51:30;;;;;;;7.35;5.47;;;14.40;99.90;;;;;;5155288;27;20050;-76
2022/09/09 01:53:56;;;;;;;9.43;5.60;;;14.40;99.90;;;;;;5156671;27;20038;-77
2022/09/09 01:56:43;;;;;;;10.07;6.60;;;14.40;99.90;;;;;;5159568;27;20037;-78
2022/09/09 01:59:11;;;;;;;6.63;5.57;;;14.40;99.90;;;;;;5160260;27;20050;-78
2022/09/09 02:02:06;;;;;;;9.30;5.75;;;14.40;99.90;;;;;;5159479;27;20046;-77
2022/09/09 02:04:41;;;;;;;9.02;5.30;;;14.40;99.90;;;;;;5159447;27;20095;-77
2022/09/09 02:07:35;;;;;;;7.43;6.03;;;14.40;99.90;;;;;;5159297;27;20085;-77
2022/09/09 02:10:16;;;;;;;7.53;5.15;;;14.40;99.90;;;;;;5140825;27;20043;-78
2022/09/09 02:12:45;;;;;;;7.47;5.13;;;14.40;99.90;;;;;;5159283;27;20122;-77
2022/09/09 02:15:36;;;;;;;9.98;6.03;;;14.40;99.90;;;;;;5159179;27;20042;-76
2022/09/09 02:18:07;;;;;;;9.23;5.95;;;14.30;99.90;;;;;;5159609;27;20450;-78
2022/09/09 02:20:36;;;;;;;9.40;6.20;;;14.30;99.90;;;;;;5140613;27;20126;-77
2022/09/09 02:23:03;;;;;;;9.13;5.55;;;14.30;99.90;;;;;;5159241;27;20125;-77
2022/09/09 02:25:30;;;;;;;7.68;5.57;;;14.30;99.90;;;;;;5158959;27;20061;-78
2022/09/09 02:27:58;;;;;;;8.98;6.50;;;14.30;99.90;;;;;;5158852;27;20042;-77
2022/09/09 02:30:25;;;;;;;11.45;6.28;;;14.20;99.90;;;;;;5158817;27;20554;-78
2022/09/09 02:32:56;;;;;;;10.65;6.78;;;14.30;99.90;;;;;;5158932;27;20089;-77
2022/09/09 02:35:24;;;;;;;11.40;6.60;;;14.20;99.90;;;;;;5159096;27;20041;-77
2022/09/09 02:37:54;;;;;;;10.35;7.32;;;14.30;99.90;;;;;;5158812;27;20397;-77
2022/09/09 02:40:21;;;;;;;10.50;7.28;;;14.30;99.90;;;;;;5158818;27;20043;-78
2022/09/09 02:42:49;;;;;;;12.50;7.53;;;14.30;99.90;;;;;;5158221;27;20479;-77
2022/09/09 02:45:18;;;;;;;10.98;6.53;;;14.30;99.90;;;;;;5140165;27;20167;-77
2022/09/09 02:47:56;;;;;;;11.98;7.80;;;14.30;99.90;;;;;;5158506;27;20042;-77
2022/09/09 02:50:42;;;;;;;10.68;7.22;;;14.30;99.90;;;;;;5158749;27;20051;-77
2022/09/09 02:53:21;;;;;;;11.18;7.03;;;14.30;99.90;;;;;;5158351;27;20065;-76
2022/09/09 02:55:54;;;;;;;8.02;6.68;;;14.40;99.90;;;;;;5159153;27;20047;-79
2022/09/09 02:58:20;;;;;;;8.73;6.40;;;14.30;99.90;;;;;;5158415;27;20034;-79
2022/09/09 03:00:49;;;;;;;8.93;6.18;;;14.40;99.90;;;;;;5158630;27;20397;-77
2022/09/09 03:03:16;;;;;;;7.38;6.00;;;14.40;99.90;;;;;;5158285;27;20093;-76
2022/09/09 03:05:42;;;;;;;10.25;6.78;;;14.40;99.90;;;;;;5157496;27;20452;-77
2022/09/09 03:08:09;;;;;;;;;;;14.40;99.90;;;;;;5159081;27;20054;-78
2022/09/09 03:10:35;;;;;;;10.05;5.93;;;14.40;99.90;;;;;;5139726;27;20006;-76
2022/09/09 03:13:00;;;;;;;9.47;5.97;;;14.40;99.90;;;;;;5139924;27;20130;-77
2022/09/09 03:15:29;;;;;;;7.97;5.45;;;14.40;99.90;;;;;;5158239;27;20174;-76
2022/09/09 03:17:56;;;;;;;7.10;5.07;;;14.40;99.90;;;;;;5158001;27;20177;-76
2022/09/09 03:20:24;;;;;;;8.05;4.47;;;14.40;99.90;;;;;;5157882;27;20078;-77
2022/09/09 03:22:49;;;;;;;5.85;3.85;;;14.40;99.90;;;;;;5158246;27;20039;-77
2022/09/09 03:25:15;;;;;;;5.77;3.17;;;14.40;99.90;;;;;;5157869;27;20386;-77
2022/09/09 03:27:40;;;;;;;4.30;2.93;;;14.40;99.90;;;;;;5157714;27;20121;-79
2022/09/09 03:30:07;;;;;;;6.20;2.83;;;14.30;99.90;;;;;;5157709;27;20046;-78
2022/09/09 03:32:32;;;;;;;4.25;2.00;;;14.30;99.90;;;;;;5157732;27;20125;-78
2022/09/09 03:34:58;;;;;;;3.83;1.93;;;14.30;99.90;;;;;;5157647;27;20081;-78
2022/09/09 03:37:24;;;;;;;4.50;1.80;;;14.30;99.90;;;;;;5157687;27;20035;-77
2022/09/09 03:39:49;;;;;;;3.60;1.70;;;14.30;99.90;;;;;;5158141;27;20043;-77
2022/09/09 03:42:18;;;;;;;3.75;2.50;;;14.40;99.90;;;;;;5157655;27;20089;-78
2022/09/09 03:44:46;;;;;;;4.28;2.53;;;14.30;99.90;;;;;;5157484;27;20042;-77
2022/09/09 03:47:13;;;;;;;4.88;2.97;;;14.30;99.90;;;;;;5157333;27;20145;-77
2022/09/09 03:49:38;;;;;;;5.95;3.40;;;14.30;99.90;;;;;;5157273;27;20049;-78
2022/09/09 03:52:04;;;;;;;8.10;4.07;;;14.20;99.90;;;;;;5138891;27;20389;-77
2022/09/09 03:54:29;;;;;;;8.37;5.70;;;14.20;99.90;;;;;;5157282;27;20046;-78
2022/09/09 03:56:55;;;;;;;8.75;5.47;;;14.20;99.90;;;;;;5157523;27;20434;-77
2022/09/09 03:59:21;;;;;;;7.97;6.70;;;14.20;99.90;;;;;;5157211;27;20042;-77
2022/09/09 04:01:46;;;;;;;12.20;7.47;;;14.20;99.90;;;;;;5138899;27;20049;-78
2022/09/09 04:04:12;;;;;;;10.37;7.60;;;14.20;99.90;;;;;;5157062;27;20039;-78
2022/09/09 04:06:38;;;;;;;11.02;7.95;;;14.20;99.90;;;;;;5156982;27;20121;-78
2022/09/09 04:09:03;;;;;;;10.85;8.63;;;14.20;99.90;;;;;;5157032;27;20118;-78
2022/09/09 04:11:29;;;;;;;10.13;8.65;;;14.40;99.90;;;;;;5157385;27;20039;-78
2022/09/09 04:13:55;;;;;;;12.20;8.48;;;14.20;99.90;;;;;;5156900;27;20034;-78
2022/09/09 04:16:20;;;;;;;13.50;9.93;;;14.30;99.90;;;;;;5155925;27;20091;-77
2022/09/09 04:18:46;;;;;;;11.23;9.33;;;14.30;99.90;;;;;;5156834;27;20043;-77
2022/09/09 04:21:12;;;;;;;11.18;9.13;;;14.20;99.90;;;;;;5156794;27;20042;-79
2022/09/09 04:23:38;;;;;;;13.00;9.10;;;14.30;99.90;;;;;;5156737;27;20435;-79
2022/09/09 04:26:05;;;;;;;11.73;9.20;;;14.30;99.90;;;;;;5157199;27;20093;-78
2022/09/09 04:28:34;;;;;;;12.25;8.70;;;14.20;99.90;;;;;;5156651;27;20286;-78
2022/09/09 04:31:14;;;;;;;19.05;10.18;;;14.20;99.90;;;;;;5138151;27;20121;-78
2022/09/09 04:33:40;;;;;;;9.57;8.10;;;14.30;99.90;;;;;;5156998;27;20463;-78
2022/09/09 04:36:06;;;;;;;11.63;9.03;;;14.20;99.90;;;;;;5156478;27;20070;-77
2022/09/09 04:38:32;;;;;;;11.25;8.52;;;14.20;99.90;;;;;;5156441;27;20042;-76
2022/09/09 04:40:58;;;;;;;10.32;8.85;;;14.20;99.90;;;;;;5138332;27;20385;-77
2022/09/09 04:43:25;;;;;;;12.25;9.07;;;14.30;99.90;;;;;;5156148;27;20054;-77
2022/09/09 04:45:51;;;;;;;13.25;8.48;;;14.30;99.90;;;;;;5156196;27;20122;-77
2022/09/09 04:48:18;;;;;;;9.68;8.55;;;14.20;99.90;;;;;;5156222;27;20053;-77
2022/09/09 04:50:43;;;;;;;11.13;8.95;;;14.20;99.90;;;;;;5156175;27;20042;-78
2022/09/09 04:53:09;;;;;;;12.02;9.00;;;14.20;99.90;;;;;;5156140;27;20434;-79
2022/09/09 04:55:35;;;;;;;10.48;8.75;;;14.40;99.90;;;;;;5156326;27;20047;-78
2022/09/09 04:58:05;;;;;;;12.63;8.60;;;14.20;99.90;;;;;;5156340;27;20034;-77
2022/09/09 05:00:31;;;;;;;10.52;8.18;;;14.20;99.90;;;;;;5155994;27;20121;-77
2022/09/09 05:02:56;;;;;;;12.77;8.30;;;14.20;99.90;;;;;;5155912;27;20078;-77
2022/09/09 05:05:22;;;;;;;8.82;7.85;;;14.20;99.90;;;;;;5155944;27;20043;-77
2022/09/09 05:07:48;;;;;;;11.10;7.75;;;14.20;99.90;;;;;;5155707;27;20107;-77
2022/09/09 05:10:14;;;;;;;11.43;8.25;;;14.40;99.90;;;;;;5155799;27;20054;-77
2022/09/09 05:12:40;;;;;;;11.80;7.95;;;14.20;99.90;;;;;;5155684;27;20479;-77
2022/09/09 05:15:06;;;;;;;8.70;7.03;;;14.20;99.90;;;;;;5155789;27;20052;-77
2022/09/09 05:17:33;;;;;;;8.27;6.43;;;14.20;99.90;;;;;;5137071;27;20121;-76
2022/09/09 05:19:59;;;;;;;8.10;5.95;;;14.20;99.90;;;;;;5155701;27;20047;-78
2022/09/09 05:22:24;;;;;;;9.55;6.93;;;14.30;99.90;;;;;;5155471;27;20043;-78
2022/09/09 05:24:50;;;;;;;9.53;7.30;;;14.30;99.90;;;;;;5155659;27;20058;-77
2022/09/09 05:27:19;;;;;;;11.23;8.05;;;14.30;99.90;;;;;;5136851;27;20039;-77
2022/09/09 05:29:45;;;;;;;11.48;7.50;;;14.20;99.90;;;;;;5155636;27;20082;-77
2022/09/09 05:32:11;;;;;;;10.63;7.82;;;14.20;99.90;;;;;;5136962;27;20043;-78
2022/09/09 05:34:40;;;;;;;11.20;7.70;;;14.20;99.90;;;;;;5155571;27;20043;-77
2022/09/09 05:37:07;;;;;;;10.80;7.60;;;14.20;99.90;;;;;;5155539;27;20034;-77
2022/09/09 05:39:33;;;;;;;7.90;6.95;;;14.20;99.90;;;;;;5155418;27;20042;-77
2022/09/09 05:41:59;;;;;;;9.18;7.18;;;14.20;99.90;;;;;;5136984;27;20057;-78
2022/09/09 05:44:27;;;;;;;11.70;8.37;;;14.20;99.90;;;;;;5155486;27;20043;-76
2022/09/09 05:46:54;;;;;;;9.27;7.38;;;14.20;99.90;;;;;;5155592;27;20043;-77
2022/09/09 05:49:20;;;;;;;10.25;7.70;;;14.30;99.90;;;;;;5155133;27;20474;-77
2022/09/09 05:51:46;;;;;;;8.07;7.27;;;14.20;99.90;;;;;;5155759;27;20500;-77
2022/09/09 05:54:15;;;;;;;8.95;7.07;;;14.20;99.90;;;;;;5137065;27;20367;-78
2022/09/09 05:56:41;;;;;;;9.43;7.15;;;14.20;99.90;;;;;;5155527;27;20439;-78
2022/09/09 05:59:07;;;;;;;11.43;7.27;;;14.20;99.90;;;;;;5155206;27;20496;-78
2022/09/09 06:01:35;;;;;;;9.13;7.30;;;14.20;99.90;;;;;;5155726;27;20050;-77
2022/09/09 06:04:01;;;;;;;8.27;7.03;;;14.30;99.90;;;;;;5155112;27;20397;-77
2022/09/09 06:06:35;;;;;;;8.02;6.43;;;14.30;99.90;;;;;;5136409;27;20039;-78
2022/09/09 06:09:06;;;;;;;9.15;6.43;;;14.30;99.90;;;;;;5155143;27;20043;-79
2022/09/09 06:11:33;;;;;;;8.35;6.88;;;14.30;99.90;;;;;;5155165;27;20050;-78
2022/09/09 06:13:59;;;;;;;11.60;6.82;;;14.40;99.90;;;;;;5154892;27;20090;-78
2022/09/09 06:16:27;;;;;;;7.88;7.07;;;14.40;99.90;;;;;;5136758;27;20046;-77
2022/09/09 06:18:56;;;;;;;9.15;6.63;;;14.70;99.90;;;;;;5155008;27;20514;-78
2022/09/09 06:21:23;;;;;;;8.20;6.85;;;14.40;99.90;;;;;;5155072;27;20389;-78
2022/09/09 06:23:50;;;;;;;8.10;6.50;;;14.40;99.90;;;;;;5136680;27;20043;-78
2022/09/09 06:26:18;;;;;;;10.38;6.70;;;14.50;99.90;;;;;;5154792;27;20090;-78
2022/09/09 06:28:45;;;;;;;8.05;7.25;;;14.50;99.90;;;;;;5154956;27;20126;-78
2022/09/09 06:31:12;;;;;;;;;;;14.60;99.90;;;;;;5155367;27;20054;-78
2022/09/09 06:33:40;;;;;;;8.88;6.40;;;14.60;99.90;;;;;;5154890;27;19923;-77
2022/09/09 06:36:18;;;;;;;10.52;6.85;;;14.90;99.90;;;;;;5154798;27;20486;-78
2022/09/09 06:38:44;;;;;;;13.35;6.80;;;14.60;99.90;;;;;;5154713;27;20086;-78
2022/09/09 06:41:12;;;;;;;8.93;7.27;;;14.60;99.90;;;;;;5158036;27;20042;-77
2022/09/09 06:43:38;;;;;;;8.85;5.90;;;14.70;99.90;;;;;;5159160;27;20296;-78
2022/09/09 06:46:09;;;;;;;8.32;7.18;;;14.70;99.90;;;;;;5158523;27;20043;-78
2022/09/09 06:48:36;;;;;;;7.68;6.50;;;14.70;99.90;;;;;;5158891;27;20047;-78
2022/09/09 06:51:05;;;;;;;9.02;7.40;;;14.70;99.90;;;;;;5158460;27;20047;-77
2022/09/09 06:53:33;;;;;;;9.43;6.95;;;14.70;99.90;;;;;;5158280;27;20042;-78
2022/09/09 06:56:01;;;;;;;8.57;6.65;;;14.80;99.90;;;;;;5158646;27;20050;-77
2022/09/09 06:58:28;;;;;;;8.35;7.15;;;14.80;99.90;;;;;;5158376;27;20039;-78
2022/09/09 07:01:05;;;;;;;8.82;6.55;;;14.90;99.90;;;;;;5158356;27;20038;-79
2022/09/09 07:03:31;;;;;;;10.65;7.15;;;14.80;99.90;;;;;;5158358;27;20125;-78
2022/09/09 07:05:57;;;;;;;11.30;6.72;;;15.10;99.90;;;;;;5158261;27;20408;-77
2022/09/09 07:08:24;;;;;;;9.97;7.57;;;14.90;99.90;;;;;;5139850;27;20047;-78
2022/09/09 07:10:53;;;;;;;10.20;7.00;;;14.90;99.90;;;;;;5158133;27;20038;-78
2022/09/09 07:13:25;;;;;;;8.10;6.80;;;15.00;99.90;;;;;;5158153;27;20057;-77
2022/09/09 07:15:50;;;;;;;7.93;6.72;;;15.20;99.90;;;;;;5158074;27;20050;-80
2022/09/09 07:18:16;;;;;;;7.73;6.57;;;15.40;99.90;;;;;;5158016;27;20091;-77
2022/09/09 07:20:42;;;;;;;7.03;6.10;;;15.40;99.90;;;;;;5157922;27;20039;-78
2022/09/09 07:23:07;;;;;;;8.00;6.20;;;15.40;99.90;;;;;;5157818;27;20091;-77
2022/09/09 07:25:33;;;;;;;7.82;5.70;;;15.50;99.90;;;;;;5157853;27;20042;-78
2022/09/09 07:27:58;;;;;;;7.28;5.97;;;15.50;99.90;;;;;;5157757;27;20078;-77
2022/09/09 07:30:24;;;;;;;6.77;6.10;;;15.60;99.90;;;;;;5157838;27;20043;-78
2022/09/09 07:32:51;;;;;;;6.57;5.80;;;15.60;99.90;;;;;;5139275;27;20043;-77
2022/09/09 07:35:17;;;;;;;8.77;6.47;;;15.70;99.90;;;;;;5157579;27;20038;-76
2022/09/09 07:37:43;;;;;;;8.17;5.70;;;15.70;99.90;;;;;;5158161;27;20082;-78
2022/09/09 07:40:10;;;;;;;7.05;5.40;;;15.80;99.90;;;;;;5157592;27;20493;-77
2022/09/09 07:42:37;;;;;;;11.60;6.53;;;16.10;99.90;;;;;;5157378;27;20113;-78
2022/09/09 07:45:03;;;;;;;;;;;15.90;99.90;;;;;;5158161;27;20164;-77
2022/09/09 07:47:29;;;;;;;7.25;5.95;;;16.10;99.90;;;;;;5139181;27;19928;-76
2022/09/09 07:49:55;;;;;;;8.53;6.50;;;16.20;99.90;;;;;;5157393;27;20050;-78
2022/09/09 07:52:21;;;;;;;8.33;5.93;;;16.30;99.90;;;;;;5157285;27;20041;-77
2022/09/09 07:54:46;;;;;;;8.32;5.72;;;16.40;99.90;;;;;;5157366;27;20268;-78
2022/09/09 07:57:12;;;;;;;10.70;6.03;;;16.50;99.90;;;;;;5157283;27;20092;-78
2022/09/09 07:59:38;;;;;;;10.33;5.70;;;16.70;99.90;;;;;;5157245;27;20039;-77
2022/09/09 08:02:03;;;;;;;10.57;6.70;;;16.80;99.90;;;;;;5157354;27;20125;-77
2022/09/09 08:04:29;;;;;;;9.80;5.80;;;16.90;99.90;;;;;;5157212;27;20054;-77
2022/09/09 08:06:59;;;;;;;8.47;5.37;;;17.20;99.90;;;;;;5156957;27;20565;-78
2022/09/09 08:09:28;;;;;;;8.70;5.00;;;17.10;99.90;;;;;;5157206;27;20053;-78
2022/09/09 08:11:56;;;;;;;6.88;5.22;;;17.20;99.90;;;;;;5156945;27;20046;-77
2022/09/09 08:14:22;;;;;;;8.20;5.15;;;17.30;99.90;;;;;;5156877;27;20099;-78
2022/09/09 08:16:49;;;;;;;8.25;5.15;;;17.30;99.90;;;;;;5156901;27;20505;-77
2022/09/09 08:19:15;;;;;;;8.18;4.70;;;17.40;99.90;;;;;;5156722;27;20069;-78
2022/09/09 08:21:42;;;;;;;10.10;4.90;;;17.40;99.90;;;;;;5156503;27;20506;-79
2022/09/09 08:24:10;;;;;;;;;;;17.50;99.90;;;;;;5156823;27;20443;-77
2022/09/09 08:26:42;;;;;;;10.98;5.28;;;17.60;99.90;;;;;;5156954;27;19919;-78
2022/09/09 08:29:10;;;;;;;6.95;4.63;;;17.60;99.90;;;;;;5156735;27;20113;-78
2022/09/09 08:31:38;;;;;;;9.98;4.60;;;17.70;99.90;;;;;;5156609;27;20496;-76
2022/09/09 08:34:05;;;;;;;8.73;4.13;;;17.90;99.90;;;;;;5156756;27;20043;-77
2022/09/09 08:36:36;;;;;;;10.23;4.25;;;17.80;99.90;;;;;;5156732;27;20039;-77
2022/09/09 08:39:04;;;;;;;8.27;3.55;;;17.80;99.90;;;;;;5121134;27;20054;-78
2022/09/09 08:41:41;;;;;;;8.70;3.53;;;17.80;99.90;;;;;;5156115;27;20038;-78
2022/09/09 08:44:33;;;;;;;7.63;3.22;;;17.80;99.90;;;;;;5156458;27;20137;-78
2022/09/09 08:47:13;;;;;;;7.57;3.30;;;17.80;99.90;;;;;;5156395;27;20061;-77
2022/09/09 08:49:56;;;;;;;8.15;3.55;;;17.70;99.90;;;;;;5156540;27;20051;-77
2022/09/09 08:52:32;;;;;;;8.40;3.70;;;17.70;99.90;;;;;;5156347;27;20126;-77
2022/09/09 08:55:28;;;;;;;8.13;3.53;;;17.70;99.90;;;;;;5156077;27;20130;-78
2022/09/09 08:57:56;;;;;;;9.32;3.53;;;17.70;99.90;;;;;;5137564;27;20091;-77
2022/09/09 09:00:28;;;;;;;7.15;3.17;;;17.80;99.90;;;;;;5156021;27;20034;-79
2022/09/09 09:03:11;;;;;;;9.02;3.40;;;17.90;99.90;;;;;;5155487;27;20053;-77
2022/09/09 09:06:12;;;;;;;9.20;3.05;;;18.00;99.90;;;;;;5156244;27;20405;-78
2022/09/09 09:08:52;;;;;;;7.05;2.80;;;18.10;99.90;;;;;;5051878;28;20496;-78
2022/09/09 09:11:18;;;;;;;8.18;3.03;;;18.20;99.90;;;;;;5144828;27;20490;-77
2022/09/09 09:14:06;;;;;;;6.07;3.00;;;18.30;99.90;;;;;;5155699;27;20046;-77
2022/09/09 09:16:41;;;;;;;12.45;3.60;;;18.30;99.90;;;;;;5138174;27;20053;-78
2022/09/09 09:19:14;;;;;;;7.80;3.17;;;18.20;99.90;;;;;;5156078;27;20043;-78
2022/09/09 09:21:47;;;;;;;7.85;2.78;;;18.30;99.90;;;;;;5155931;27;20111;-77
2022/09/09 09:24:25;;;;;;;11.02;3.13;;;18.40;99.90;;;;;;5155566;27;20050;-77
2022/09/09 09:26:52;;;;;;;5.88;2.55;;;18.50;99.90;;;;;;5155596;27;20046;-78
2022/09/09 09:29:21;;;;;;;7.03;2.60;;;18.60;99.90;;;;;;5155511;27;20054;-78
2022/09/09 09:31:52;;;;;;;7.55;2.88;;;18.70;99.90;;;;;;5155508;27;20050;-77
2022/09/09 09:34:17;;;;;;;7.60;2.80;;;18.70;99.90;;;;;;5155780;27;20053;-77
2022/09/09 09:36:52;;;;;;;6.93;2.57;;;18.70;99.90;;;;;;5156052;27;20121;-78
2022/09/09 09:39:29;;;;;;;8.68;2.55;;;18.60;99.90;;;;;;5155997;27;20048;-78
2022/09/09 09:41:56;;;;;;;;;;;18.60;99.90;;;;;;5155738;27;20474;-77
2022/09/09 09:44:26;;;;;;;8.57;2.70;;;18.80;99.90;;;;;;5155569;27;19918;-77
2022/09/09 09:46:52;;;;;;;5.15;2.03;;;18.90;99.90;;;;;;5155437;27;20039;-78
2022/09/09 09:49:18;;;;;;;8.90;2.70;;;19.20;99.90;;;;;;5137109;27;20050;-77
2022/09/09 09:51:44;;;;;;;7.57;2.10;;;19.20;99.90;;;;;;5155773;27;20049;-77
2022/09/09 09:54:13;;;;;;;7.27;2.10;;;19.40;99.90;;;;;;5155267;27;20038;-78
2022/09/09 09:56:40;;;;;;;5.78;2.13;;;19.50;99.90;;;;;;5136893;27;20054;-78
2022/09/09 09:59:05;;;;;;;8.00;2.42;;;19.60;99.90;;;;;;5155498;27;20466;-76
2022/09/09 10:01:33;;;;;;;8.90;2.50;;;19.60;99.90;;;;;;5155393;27;20082;-78
2022/09/09 10:04:03;;;;;;;11.27;2.38;;;19.60;99.90;;;;;;5155146;27;20043;-78
2022/09/09 10:06:38;;;;;;;8.52;2.05;;;19.60;99.90;;;;;;5155077;27;20042;-76
2022/09/09 10:09:20;;;;;;;5.60;2.05;;;19.60;99.90;;;;;;5155144;27;20043;-78
2022/09/09 10:12:12;;;;;;;6.40;1.90;;;19.60;99.90;;;;;;5155170;27;20039;-78
2022/09/09 10:14:56;;;;;;;5.88;1.88;;;19.70;99.90;;;;;;5156027;27;20043;-76
2022/09/09 10:17:50;;;;;;;6.13;1.98;;;19.70;99.90;;;;;;5159137;27;20042;-77
2022/09/09 10:20:34;;;;;;;7.43;1.83;;;19.80;99.90;;;;;;5159581;27;20039;-77
2022/09/09 10:23:28;;;;;;;6.47;2.03;;;19.90;99.90;;;;;;5141514;27;20053;-76
2022/09/09 10:26:05;;;;;;;4.80;1.55;;;19.90;99.90;;;;;;5159032;27;20516;-77
2022/09/09 10:28:40;;;;;;;7.55;1.80;;;20.00;99.90;;;;;;5123917;27;20054;-77
2022/09/09 10:31:11;;;;;;;9.85;2.05;;;20.00;99.90;;;;;;5158756;27;20051;-77
2022/09/09 10:33:55;;;;;;;8.80;2.10;;;20.00;99.90;;;;;;5158790;27;20051;-77
2022/09/09 10:36:29;;;;;;;6.07;1.52;;;20.00;99.90;;;;;;5158758;27;20085;-76
2022/09/09 10:39:15;;;;;;;5.60;1.83;;;20.00;99.90;;;;;;5158997;27;20047;-78
2022/09/09 10:41:58;;;;;;;7.00;1.85;;;20.30;99.90;;;;;;5158447;27;20105;-77
2022/09/09 10:45:05;;;;;;;6.35;2.25;;;20.40;99.90;;;;;;5158802;27;20440;-77
2022/09/09 10:47:56;;;;;;;5.97;1.67;;;20.40;99.90;;;;;;5140091;27;20043;-77
2022/09/09 10:50:33;;;;;;;5.57;1.15;;;20.50;99.90;;;;;;5158920;27;20050;-77
2022/09/09 10:53:17;;;;;;;4.18;1.30;;;20.60;99.90;;;;;;5140552;27;20054;-77
2022/09/09 10:55:56;;;;;;;6.72;1.50;;;20.60;99.90;;;;;;5158620;27;20402;-78
2022/09/09 10:58:25;;;;;;;6.10;1.80;;;20.60;99.90;;;;;;5158311;27;20046;-77
2022/09/09 11:01:02;;;;;;;4.15;1.40;;;20.50;99.90;;;;;;5158293;27;20084;-77
2022/09/09 11:03:33;;;;;;;6.60;1.80;;;20.40;99.90;;;;;;5158617;27;20390;-77
2022/09/09 11:06:09;;;;;;;5.43;1.30;;;20.50;99.90;;;;;;5158157;27;20049;-78
2022/09/09 11:08:39;;;;;;;5.00;1.42;;;20.40;99.90;;;;;;5158187;27;20492;-78
2022/09/09 11:11:07;;;;;;;4.88;1.42;;;20.40;99.90;;;;;;5140072;27;20078;-77
2022/09/09 11:13:51;;;;;;;9.52;1.80;;;20.40;99.90;;;;;;5158072;27;20126;-78
2022/09/09 11:16:35;;;;;;;10.10;2.72;;;20.50;99.90;;;;;;5158013;27;20036;-77
2022/09/09 11:19:10;;;;;;;7.88;1.70;;;20.60;99.90;;;;;;5157992;27;20047;-77
2022/09/09 11:21:41;;;;;;;6.10;1.63;;;20.70;99.90;;;;;;5158470;27;20043;-77
2022/09/09 11:24:27;;;;;;;4.78;1.50;;;20.70;99.90;;;;;;5157936;27;20051;-77
2022/09/09 11:27:06;;;;;;;5.45;1.45;;;20.70;99.90;;;;;;5157615;27;20379;-77
2022/09/09 11:30:09;;;;;;;5.45;1.80;;;20.70;99.90;;;;;;5139205;27;20489;-76
2022/09/09 11:32:44;;;;;;;7.13;1.30;;;20.90;99.90;;;;;;5157657;27;20134;-77
2022/09/09 11:35:40;;;;;;;6.05;1.65;;;21.10;99.90;;;;;;5157626;27;20130;-76
2022/09/09 11:38:18;;;;;;;5.20;1.23;;;21.20;99.90;;;;;;5157869;27;20046;-77
2022/09/09 11:40:44;;;;;;;7.43;1.75;;;21.30;99.90;;;;;;5157575;27;20042;-77
2022/09/09 11:43:22;;;;;;;6.57;1.67;;;21.40;99.90;;;;;;5157082;27;20134;-76
2022/09/09 11:45:53;;;;;;;4.07;1.40;;;21.40;99.90;;;;;;5157668;27;20052;-77
2022/09/09 11:48:43;;;;;;;5.88;1.27;;;21.40;99.90;;;;;;5157276;27;20043;-77
2022/09/09 11:51:30;;;;;;;8.38;1.30;;;21.20;99.90;;;;;;5157737;27;20043;-76
2022/09/09 11:54:20;;;;;;;9.02;1.77;;;21.10;99.90;;;;;;5157545;27;20043;-77
2022/09/09 11:56:46;;;;;;;4.93;1.48;;;21.10;99.90;;;;;;5156383;27;20091;-78
2022/09/09 11:59:24;;;;;;;4.13;1.40;;;21.30;99.90;;;;;;5157223;27;20047;-77
2022/09/09 12:02:16;;;;;;;6.53;1.48;;;21.10;99.90;;;;;;5157160;27;20078;-77
2022/09/09 12:04:55;;;;;;;5.07;1.63;;;21.10;99.90;;;;;;5157282;27;20146;-77
2022/09/09 12:07:42;;;;;;;4.25;1.40;;;21.10;99.90;;;;;;5157458;27;20454;-78
2022/09/09 12:10:26;;;;;;;5.47;1.52;;;21.20;99.90;;;;;;5157032;27;20115;-77
2022/09/09 12:12:51;;;;;;;5.10;1.38;;;21.40;99.90;;;;;;5156879;27;20125;-77
2022/09/09 12:15:28;;;;;;;4.90;1.30;;;21.70;99.90;;;;;;5156924;27;20134;-78
2022/09/09 12:17:58;;;;;;;4.50;1.27;;;21.80;99.90;;;;;;5157374;27;20450;-77
2022/09/09 12:20:30;;;;;;;5.95;1.60;;;22.00;99.90;;;;;;5157183;27;20118;-77
2022/09/09 12:23:16;;;;;;;4.70;1.50;;;22.10;99.90;;;;;;5156815;27;20069;-77
2022/09/09 12:26:16;;;;;;;3.63;1.10;;;21.90;99.90;;;;;;5156585;27;20477;-77
2022/09/09 12:28:45;;;;;;;5.40;1.63;;;21.70;99.90;;;;;;5156705;27;20053;-77
2022/09/09 12:31:24;;;;;;;4.32;1.30;;;21.50;99.90;;;;;;5156542;27;20051;-77
2022/09/09 12:33:52;;;;;;;6.18;1.27;;;21.30;99.90;;;;;;5156761;27;20039;-76
2022/09/09 12:36:22;;;;;;;4.75;1.00;;;21.20;99.90;;;;;;5156509;27;20054;-78
2022/09/09 12:38:50;;;;;;;5.05;1.30;;;21.10;99.90;;;;;;5156595;27;20044;-77
2022/09/09 12:41:28;;;;;;;5.53;1.10;;;21.00;99.90;;;;;;5156452;27;20047;-77
2022/09/09 12:44:09;;;;;;;3.83;1.20;;;21.10;99.90;;;;;;5156400;27;20371;-77
2022/09/09 12:46:46;;;;;;;5.15;1.20;;;21.00;99.90;;;;;;5156378;27;20042;-77
2022/09/09 12:49:38;;;;;;;4.40;1.63;;;21.00;99.90;;;;;;5156672;27;20473;-76
2022/09/09 12:52:07;;;;;;;6.63;1.40;;;21.00;99.90;;;;;;5156213;27;20121;-77
2022/09/09 12:54:36;;;;;;;3.58;1.40;;;21.10;99.90;;;;;;5156397;27;20381;-77
2022/09/09 12:57:03;;;;;;;7.25;1.50;;;21.30;99.90;;;;;;5155996;27;20046;-77
2022/09/09 12:59:37;;;;;;;5.57;1.38;;;21.40;99.90;;;;;;5155667;27;20414;-77
2022/09/09 13:02:11;;;;;;;4.95;1.38;;;21.40;99.90;;;;;;5155916;27;20126;-77
2022/09/09 13:04:37;;;;;;;4.35;1.33;;;21.50;99.90;;;;;;5156023;27;20367;-76
2022/09/09 13:07:09;;;;;;;3.80;1.20;;;21.40;99.90;;;;;;5155674;27;20090;-76
2022/09/09 13:09:35;;;;;;;3.88;1.08;;;21.50;99.90;;;;;;5155979;27;20443;-77
2022/09/09 13:12:05;;;;;;;6.80;1.40;;;21.40;99.90;;;;;;5155790;27;20043;-76